Time;durP1;ratioP1;P1;durP2;ratioP2;P2;SDS_P1;SDS_P2;PMS_P1;PMS_P2;Temp;Humidity;BMP_temperature;BMP_pressure;BME280_temperature;BME280_humidity;BME280_pressure;Samples;Min_cycle;Max_cycle;Signal;HPM_P1;HPM_P2
2021/10/02 00:38:12;;;;;;;0.40;0.30;;;13.30;99.90;;;;;;4990686;28;20560;-74
2021/10/02 00:46:13;;;;;;;0.40;0.30;;;13.30;99.90;;;;;;4991191;28;20425;-74
2021/10/02 00:48:40;;;;;;;0.40;0.20;;;13.20;99.90;;;;;;4990630;28;20394;-74
2021/10/02 00:51:06;;;;;;;0.40;0.30;;;13.00;99.90;;;;;;4991241;28;20390;-74
2021/10/02 00:53:31;;;;;;;0.40;0.38;;;13.00;99.90;;;;;;4990615;28;20390;-74
2021/10/02 00:55:57;;;;;;;0.40;0.20;;;13.00;99.90;;;;;;4991357;28;20478;-74
2021/10/02 00:58:23;;;;;;;0.40;0.20;;;13.00;99.90;;;;;;4994097;28;20441;-74
2021/10/02 01:00:52;;;;;;;0.40;0.20;;;13.00;99.90;;;;;;4994325;28;20504;-74
2021/10/02 01:03:24;;;;;;;0.40;0.20;;;12.90;99.90;;;;;;4994786;28;20486;-74
2021/10/02 01:06:05;;;;;;;0.40;0.30;;;13.00;99.90;;;;;;4994432;28;20789;-73
2021/10/02 01:08:47;;;;;;;0.40;0.20;;;13.00;99.90;;;;;;4977277;28;20456;-74
2021/10/02 01:11:24;;;;;;;0.40;0.20;;;12.90;99.90;;;;;;4994732;28;20460;-74
2021/10/02 01:13:52;;;;;;;0.80;0.60;;;13.00;99.90;;;;;;4993813;28;20470;-74
2021/10/02 01:16:32;;;;;;;0.40;0.30;;;12.90;99.90;;;;;;4994490;28;20879;-74
2021/10/02 01:19:35;;;;;;;0.40;0.20;;;13.00;99.90;;;;;;4994593;28;20477;-74
2021/10/02 01:22:10;;;;;;;0.40;0.40;;;12.90;99.90;;;;;;4994614;28;20429;-74
2021/10/02 01:25:10;;;;;;;0.40;0.20;;;12.80;99.90;;;;;;4993715;28;20466;-74
2021/10/02 01:27:56;;;;;;;0.40;0.30;;;12.80;99.90;;;;;;4977617;28;21068;-74
2021/10/02 01:30:41;;;;;;;0.40;0.30;;;12.70;99.90;;;;;;4994588;28;20398;-74
2021/10/02 01:33:21;;;;;;;0.40;0.30;;;12.80;99.90;;;;;;4994611;28;20386;-74
2021/10/02 01:36:05;;;;;;;0.40;0.30;;;12.80;99.90;;;;;;4993891;28;20387;-73
2021/10/02 01:47:09;;;;;;;1.00;0.80;;;12.70;99.90;;;;;;4974051;28;20474;-73
2021/10/02 01:49:37;;;;;;;0.60;0.60;;;12.60;99.90;;;;;;4974246;28;20455;-73
2021/10/02 01:52:03;;;;;;;0.40;0.30;;;12.70;99.90;;;;;;4957246;28;20511;-73
2021/10/02 01:54:30;;;;;;;0.40;0.20;;;12.80;99.90;;;;;;4974473;28;20459;-73
2021/10/02 01:56:57;;;;;;;0.50;0.50;;;13.00;99.90;;;;;;4974162;28;20807;-73
2021/10/02 01:59:26;;;;;;;0.40;0.20;;;13.20;99.90;;;;;;4974649;28;20745;-73
2021/10/02 02:01:52;;;;;;;0.40;0.20;;;13.20;99.90;;;;;;4973900;28;20400;-73
2021/10/02 02:04:19;;;;;;;0.40;0.30;;;13.10;99.90;;;;;;4974606;28;20400;-73
2021/10/02 02:06:47;;;;;;;0.40;0.20;;;13.10;99.90;;;;;;4973830;28;20388;-73
2021/10/02 02:09:15;;;;;;;0.40;0.20;;;13.40;99.90;;;;;;4973233;28;20800;-73
2021/10/02 02:11:43;;;;;;;0.43;0.43;;;13.40;99.90;;;;;;4973670;28;20403;-73
2021/10/02 02:14:13;;;;;;;0.40;0.20;;;13.40;99.90;;;;;;4974163;28;20407;-74
2021/10/02 02:16:40;;;;;;;0.40;0.20;;;13.40;99.90;;;;;;4973580;28;20389;-74
2021/10/02 02:19:07;;;;;;;0.40;0.20;;;13.50;99.90;;;;;;4974200;28;20753;-73
2021/10/02 02:21:33;;;;;;;0.40;0.20;;;13.40;99.90;;;;;;4974053;28;20431;-73
2021/10/02 02:23:59;;;;;;;0.40;0.20;;;13.30;99.90;;;;;;4973365;28;20392;-74
2021/10/02 02:26:27;;;;;;;1.50;0.70;;;13.30;99.90;;;;;;4973918;28;20419;-72
2021/10/02 02:28:53;;;;;;;0.40;0.20;;;13.20;99.90;;;;;;4973353;28;20467;-75
2021/10/02 02:31:19;;;;;;;0.40;0.30;;;13.10;99.90;;;;;;4974177;28;20450;-72
2021/10/02 02:33:45;;;;;;;0.40;0.20;;;13.20;99.90;;;;;;4973138;28;20390;-72
2021/10/02 02:36:11;;;;;;;0.40;0.30;;;12.60;99.90;;;;;;4973933;28;20392;-73
2021/10/02 02:38:37;;;;;;;0.40;0.20;;;13.00;99.90;;;;;;4973440;28;20388;-73
2021/10/02 02:41:04;;;;;;;0.40;0.20;;;12.80;99.90;;;;;;4973243;28;20416;-73
2021/10/02 02:43:34;;;;;;;0.40;0.30;;;13.00;99.90;;;;;;4973633;28;20396;-73
2021/10/02 02:46:22;;;;;;;0.40;0.30;;;13.00;99.90;;;;;;4973077;28;20388;-73
2021/10/02 02:48:56;;;;;;;0.40;0.20;;;12.90;99.90;;;;;;4972977;28;20384;-73
2021/10/02 02:51:27;;;;;;;0.60;0.60;;;12.80;99.90;;;;;;4973595;28;20444;-73
2021/10/02 02:54:29;;;;;;;0.40;0.30;;;12.80;99.90;;;;;;4972946;28;20733;-73
2021/10/02 02:56:57;;;;;;;0.43;0.33;;;12.70;99.90;;;;;;4964675;28;20570;-73
2021/10/02 02:59:34;;;;;;;0.40;0.20;;;12.60;99.90;;;;;;4973039;28;20407;-73
2021/10/02 03:02:03;;;;;;;0.40;0.20;;;12.80;99.90;;;;;;4972827;28;20400;-73
2021/10/02 03:04:33;;;;;;;0.40;0.30;;;12.70;99.90;;;;;;4973159;28;20539;-73
2021/10/02 03:07:01;;;;;;;0.40;0.20;;;12.50;99.90;;;;;;4972780;28;20806;-73
2021/10/02 03:09:32;;;;;;;0.40;0.30;;;12.50;99.90;;;;;;4973056;28;20404;-73
2021/10/02 03:11:59;;;;;;;0.40;0.30;;;12.80;99.90;;;;;;4972672;28;20475;-73
2021/10/02 03:14:26;;;;;;;0.40;0.30;;;12.30;99.90;;;;;;4972782;28;20539;-73
2021/10/02 03:16:54;;;;;;;0.40;0.20;;;12.50;99.90;;;;;;4972527;28;20401;-73
2021/10/02 03:19:21;;;;;;;0.40;0.30;;;12.40;99.90;;;;;;4972903;28;20388;-73
2021/10/02 03:21:50;;;;;;;2.50;0.90;;;12.40;99.90;;;;;;4971891;28;20401;-74
2021/10/02 03:24:16;;;;;;;0.40;0.30;;;12.40;99.90;;;;;;4972719;28;20402;-73
2021/10/02 03:26:43;;;;;;;0.40;0.20;;;12.50;99.90;;;;;;4971828;28;20420;-74
2021/10/02 03:29:09;;;;;;;0.40;0.20;;;12.40;99.90;;;;;;4972732;28;20408;-73
2021/10/02 03:31:35;;;;;;;0.40;0.35;;;12.40;99.90;;;;;;4972809;28;20392;-73
2021/10/02 03:34:02;;;;;;;0.40;0.20;;;12.80;99.90;;;;;;4971835;28;20775;-73
2021/10/02 03:36:28;;;;;;;0.40;0.20;;;12.60;99.90;;;;;;4972739;28;20384;-73
2021/10/02 03:38:55;;;;;;;0.40;0.20;;;12.50;99.90;;;;;;4971903;28;20411;-73
2021/10/02 03:41:20;;;;;;;0.40;0.30;;;12.50;99.90;;;;;;4972356;28;20419;-73
2021/10/02 03:43:47;;;;;;;0.40;0.20;;;12.50;99.90;;;;;;4971901;28;20400;-73
2021/10/02 03:46:13;;;;;;;0.40;0.20;;;12.40;99.90;;;;;;4983863;28;20730;-73
2021/10/02 03:48:38;;;;;;;0.40;0.20;;;12.50;99.90;;;;;;4972533;28;20384;-73
2021/10/02 03:51:04;;;;;;;0.40;0.20;;;12.30;99.90;;;;;;4972085;28;20441;-73
2021/10/02 03:53:31;;;;;;;1.10;0.80;;;12.30;99.90;;;;;;4972570;28;20408;-73
2021/10/02 03:55:58;;;;;;;0.40;0.20;;;12.30;99.90;;;;;;4971834;28;20407;-73
2021/10/02 03:58:24;;;;;;;0.40;0.20;;;12.30;99.90;;;;;;4972364;28;20535;-73
2021/10/02 04:00:50;;;;;;;0.40;0.20;;;12.20;99.90;;;;;;4971633;28;20495;-73
2021/10/02 04:03:15;;;;;;;0.40;0.30;;;12.10;99.90;;;;;;4972824;28;20914;-73
2021/10/02 04:05:41;;;;;;;0.40;0.30;;;12.10;99.90;;;;;;4972755;28;20384;-72
2021/10/02 04:08:07;;;;;;;0.40;0.30;;;12.00;99.90;;;;;;4972086;28;20373;-73
2021/10/02 04:10:32;;;;;;;0.40;0.20;;;11.90;99.90;;;;;;4972625;28;20487;-73
2021/10/02 04:12:58;;;;;;;0.40;0.30;;;11.90;99.90;;;;;;4972130;28;20876;-73
2021/10/02 04:15:24;;;;;;;0.40;0.30;;;12.00;99.90;;;;;;4972285;28;20471;-73
2021/10/02 04:17:50;;;;;;;0.40;0.30;;;12.00;99.90;;;;;;4972038;28;20384;-73
2021/10/02 04:20:16;;;;;;;0.40;0.30;;;11.70;99.90;;;;;;4972385;28;20467;-73
2021/10/02 04:22:42;;;;;;;0.40;0.30;;;11.80;99.90;;;;;;4972321;28;20388;-73
2021/10/02 04:25:08;;;;;;;0.40;0.30;;;12.00;99.90;;;;;;4971768;28;20403;-73
2021/10/02 04:27:34;;;;;;;0.40;0.20;;;12.00;99.90;;;;;;4972532;28;20781;-73
2021/10/02 04:29:59;;;;;;;0.40;0.30;;;11.90;99.90;;;;;;4972193;28;20483;-73
2021/10/02 04:32:25;;;;;;;0.70;0.70;;;12.60;99.90;;;;;;4973981;28;20392;-73
2021/10/02 04:34:51;;;;;;;0.40;0.20;;;11.90;99.90;;;;;;4975566;28;20397;-73
2021/10/02 04:37:17;;;;;;;0.40;0.20;;;12.00;99.90;;;;;;4976521;28;20388;-73
2021/10/02 04:39:42;;;;;;;0.40;0.30;;;12.00;99.90;;;;;;4976141;28;20408;-73
2021/10/02 04:42:08;;;;;;;0.40;0.30;;;12.00;99.90;;;;;;4990574;28;20388;-74
2021/10/02 04:44:33;;;;;;;0.40;0.30;;;11.90;99.90;;;;;;4976364;28;20380;-73
2021/10/02 04:46:59;;;;;;;0.40;0.30;;;11.70;99.90;;;;;;4975639;28;20770;-74
2021/10/02 04:49:25;;;;;;;0.40;0.30;;;11.70;99.90;;;;;;4976250;28;20384;-74
2021/10/02 04:51:51;;;;;;;0.60;0.40;;;11.90;99.90;;;;;;4975459;28;20384;-74
2021/10/02 04:54:17;;;;;;;0.40;0.30;;;11.50;99.90;;;;;;4976395;28;20871;-74
2021/10/02 04:56:43;;;;;;;0.40;0.20;;;11.50;99.90;;;;;;4975783;28;20407;-74
2021/10/02 04:59:08;;;;;;;0.50;0.50;;;11.70;99.90;;;;;;4975531;28;20858;-74
2021/10/02 05:01:34;;;;;;;0.40;0.30;;;11.50;99.90;;;;;;4975925;28;20746;-73
2021/10/02 05:04:01;;;;;;;0.40;0.30;;;11.50;99.90;;;;;;4975424;28;20398;-74
2021/10/02 05:06:27;;;;;;;0.40;0.30;;;11.90;99.90;;;;;;4975872;28;20865;-73
2021/10/02 05:08:53;;;;;;;0.40;0.30;;;11.50;99.90;;;;;;4975327;28;20424;-73
2021/10/02 05:11:19;;;;;;;0.40;0.30;;;11.60;99.90;;;;;;4975816;28;20742;-73
2021/10/02 05:13:44;;;;;;;0.40;0.20;;;11.50;99.90;;;;;;4975787;28;20380;-73
2021/10/02 05:16:10;;;;;;;0.40;0.27;;;11.40;99.90;;;;;;4975123;28;20806;-73
2021/10/02 05:18:36;;;;;;;0.40;0.20;;;11.30;99.90;;;;;;4975837;28;20388;-73
2021/10/02 05:21:01;;;;;;;0.40;0.30;;;11.30;99.90;;;;;;4974834;28;20470;-74
2021/10/02 05:23:27;;;;;;;0.40;0.30;;;11.40;99.90;;;;;;4975846;28;20494;-74
2021/10/02 05:25:54;;;;;;;0.40;0.30;;;11.30;99.90;;;;;;4974966;28;20459;-74
2021/10/02 05:28:21;;;;;;;0.40;0.30;;;11.20;99.90;;;;;;4975827;28;20415;-73
2021/10/02 05:30:46;;;;;;;0.40;0.30;;;11.10;99.90;;;;;;4975537;28;20422;-73
2021/10/02 05:33:12;;;;;;;0.40;0.20;;;11.20;99.90;;;;;;4974906;28;20830;-73
2021/10/02 05:35:38;;;;;;;0.40;0.30;;;11.10;99.90;;;;;;4975352;28;20403;-74
2021/10/02 05:38:03;;;;;;;0.40;0.30;;;11.20;99.90;;;;;;4974727;28;20380;-74
2021/10/02 05:40:29;;;;;;;0.40;0.30;;;11.20;99.90;;;;;;4975315;28;20734;-75
2021/10/02 05:42:55;;;;;;;0.40;0.30;;;11.10;99.90;;;;;;4974281;28;20778;-74
2021/10/02 05:45:21;;;;;;;0.40;0.30;;;11.20;99.90;;;;;;4983485;28;20387;-74
2021/10/02 05:47:47;;;;;;;0.40;0.20;;;11.20;99.90;;;;;;4994408;28;20387;-74
2021/10/02 05:50:12;;;;;;;0.40;0.20;;;11.10;99.90;;;;;;4994035;28;20393;-74
2021/10/02 05:52:38;;;;;;;0.40;0.20;;;11.20;99.90;;;;;;4994500;28;20389;-74
2021/10/02 05:55:04;;;;;;;0.40;0.30;;;11.20;99.90;;;;;;4993762;28;20405;-74
2021/10/02 05:57:30;;;;;;;0.40;0.30;;;11.20;99.90;;;;;;4994491;28;20445;-74
2021/10/02 05:59:56;;;;;;;0.40;0.20;;;11.30;99.90;;;;;;4993476;28;20414;-75
2021/10/02 06:02:21;;;;;;;0.40;0.30;;;11.20;99.90;;;;;;4994308;28;20724;-74
2021/10/02 06:04:47;;;;;;;0.40;0.30;;;11.30;99.90;;;;;;4994195;28;20379;-74
2021/10/02 06:07:13;;;;;;;0.40;0.20;;;11.30;99.90;;;;;;4993326;28;20387;-75
2021/10/02 06:09:38;;;;;;;0.40;0.28;;;11.30;99.90;;;;;;4994510;28;20413;-74
2021/10/02 06:12:04;;;;;;;0.40;0.30;;;11.80;99.90;;;;;;4993600;28;20386;-74
2021/10/02 06:14:30;;;;;;;0.80;0.80;;;11.20;99.90;;;;;;4994226;28;20469;-74
2021/10/02 06:16:56;;;;;;;0.40;0.30;;;11.20;99.90;;;;;;4993410;28;20941;-74
2021/10/02 06:19:21;;;;;;;0.40;0.30;;;11.20;99.90;;;;;;4994311;28;20386;-74
2021/10/02 06:21:47;;;;;;;0.40;0.30;;;11.20;99.90;;;;;;4994025;28;20489;-74
2021/10/02 06:24:14;;;;;;;0.40;0.20;;;11.30;99.90;;;;;;4993354;28;20393;-75
2021/10/02 06:26:40;;;;;;;0.40;0.30;;;11.40;99.90;;;;;;4993694;28;20469;-74
2021/10/02 06:29:07;;;;;;;0.40;0.30;;;11.30;99.90;;;;;;4993497;28;20390;-75
2021/10/02 06:31:33;;;;;;;0.40;0.20;;;11.20;99.90;;;;;;4993917;28;20390;-74
2021/10/02 06:33:59;;;;;;;0.40;0.30;;;11.30;99.90;;;;;;4993276;28;20441;-74
2021/10/02 06:36:27;;;;;;;0.40;0.30;;;11.40;99.90;;;;;;4993691;28;20386;-74
2021/10/02 06:38:53;;;;;;;0.40;0.25;;;11.30;99.90;;;;;;4993099;28;20402;-75
2021/10/02 06:41:19;;;;;;;0.40;0.30;;;11.30;99.90;;;;;;4993493;28;20410;-75
2021/10/02 06:43:45;;;;;;;0.40;0.30;;;11.30;99.90;;;;;;4993622;28;20922;-74
2021/10/02 06:46:10;;;;;;;0.40;0.20;;;11.20;99.90;;;;;;4976828;28;20396;-74
2021/10/02 06:48:36;;;;;;;0.40;0.30;;;11.40;99.90;;;;;;4956783;28;20412;-74
2021/10/02 06:51:02;;;;;;;0.40;0.30;;;11.30;99.90;;;;;;4973419;28;20396;-75
2021/10/02 06:53:27;;;;;;;0.40;0.20;;;11.30;99.90;;;;;;4974033;28;20388;-74
2021/10/02 06:55:53;;;;;;;0.40;0.30;;;11.30;99.90;;;;;;4973308;28;20400;-74
2021/10/02 06:58:19;;;;;;;0.40;0.20;;;11.30;99.90;;;;;;4973824;28;20478;-73
2021/10/02 07:00:44;;;;;;;0.40;0.20;;;11.30;99.90;;;;;;4973764;28;20400;-73
2021/10/02 07:03:10;;;;;;;0.40;0.20;;;11.30;99.90;;;;;;4973408;28;20406;-73
2021/10/02 07:05:35;;;;;;;0.40;0.20;;;11.40;99.90;;;;;;4973903;28;20383;-73
2021/10/02 07:08:01;;;;;;;0.40;0.40;;;11.70;99.90;;;;;;4973182;28;20415;-73
2021/10/02 07:10:27;;;;;;;0.40;0.30;;;11.50;99.90;;;;;;4973792;28;20466;-74
2021/10/02 07:12:54;;;;;;;0.40;0.30;;;11.60;99.90;;;;;;4973563;28;20722;-74
2021/10/02 07:15:20;;;;;;;0.40;0.30;;;11.70;99.90;;;;;;4973637;28;20388;-74
2021/10/02 07:17:45;;;;;;;0.40;0.20;;;11.70;99.90;;;;;;4973485;28;20471;-73
2021/10/02 07:20:14;;;;;;;0.40;0.30;;;11.80;99.90;;;;;;4972810;28;20499;-74
2021/10/02 07:22:40;;;;;;;0.40;0.30;;;11.80;99.90;;;;;;4973361;28;20388;-74
2021/10/02 07:25:08;;;;;;;0.47;0.38;;;11.90;99.90;;;;;;4972673;28;20489;-74
2021/10/02 07:27:34;;;;;;;0.40;0.30;;;12.10;99.90;;;;;;4973263;28;20420;-73
2021/10/02 07:30:00;;;;;;;0.40;0.40;;;12.00;99.90;;;;;;4972685;28;20454;-74
2021/10/02 07:32:25;;;;;;;0.40;0.20;;;12.30;99.90;;;;;;4973238;28;20392;-73
2021/10/02 07:34:51;;;;;;;0.40;0.30;;;12.40;99.90;;;;;;4973250;28;20877;-73
2021/10/02 07:37:17;;;;;;;0.40;0.20;;;12.40;99.90;;;;;;4972173;28;20396;-74
2021/10/02 07:39:43;;;;;;;0.40;0.20;;;12.60;99.90;;;;;;4972786;28;20788;-73
2021/10/02 07:42:12;;;;;;;0.40;0.20;;;12.60;99.90;;;;;;4972168;28;20877;-73
2021/10/02 07:44:41;;;;;;;0.40;0.30;;;12.60;99.90;;;;;;4976279;28;20375;-74
2021/10/02 07:47:08;;;;;;;0.40;0.20;;;12.60;99.90;;;;;;4990315;28;20895;-74
2021/10/02 07:49:35;;;;;;;0.40;0.20;;;12.70;99.90;;;;;;4992303;28;20402;-73
2021/10/02 07:52:02;;;;;;;0.40;0.20;;;12.70;99.90;;;;;;4991664;28;20387;-73
2021/10/02 07:54:27;;;;;;;0.40;0.20;;;12.80;99.90;;;;;;4992318;28;20402;-73
2021/10/02 07:56:54;;;;;;;0.40;0.30;;;12.90;99.90;;;;;;4992573;28;20394;-73
2021/10/02 07:59:20;;;;;;;0.40;0.20;;;13.10;99.90;;;;;;4991999;28;20442;-73
2021/10/02 08:01:47;;;;;;;0.40;0.30;;;13.10;99.90;;;;;;4991888;28;20454;-73
2021/10/02 08:04:13;;;;;;;0.40;0.30;;;13.40;99.90;;;;;;4991522;28;20378;-73
2021/10/02 08:06:39;;;;;;;0.40;0.20;;;13.30;99.90;;;;;;4991478;28;20390;-73
2021/10/02 08:09:06;;;;;;;0.40;0.30;;;14.80;99.90;;;;;;4991608;28;20375;-73
2021/10/02 08:11:32;;;;;;;0.40;0.30;;;13.50;99.90;;;;;;4992246;28;20391;-73
2021/10/02 08:13:58;;;;;;;0.40;0.30;;;13.60;99.90;;;;;;4992261;28;20393;-73
2021/10/02 08:16:29;;;;;;;0.40;0.20;;;13.60;99.90;;;;;;4991770;28;20494;-74
2021/10/02 08:18:58;;;;;;;0.40;0.30;;;13.80;99.90;;;;;;4991751;28;20397;-73
2021/10/02 08:21:24;;;;;;;0.40;0.30;;;13.90;99.90;;;;;;4991839;28;20410;-73
2021/10/02 08:23:51;;;;;;;0.40;0.20;;;14.00;99.90;;;;;;4991843;28;20397;-72
2021/10/02 08:26:17;;;;;;;0.40;0.30;;;14.00;99.90;;;;;;4990830;28;20397;-73
2021/10/02 08:28:45;;;;;;;0.40;0.30;;;14.20;99.90;;;;;;4992005;28;20566;-73
2021/10/02 08:31:18;;;;;;;0.40;0.30;;;14.30;99.90;;;;;;4991363;28;20382;-73
2021/10/02 08:33:43;;;;;;;0.40;0.20;;;14.40;99.90;;;;;;4991637;28;20383;-73
2021/10/02 08:36:10;;;;;;;0.40;0.30;;;14.50;99.90;;;;;;4991230;28;20386;-73
2021/10/02 08:38:35;;;;;;;0.40;0.30;;;14.60;99.90;;;;;;4991891;28;20540;-73
2021/10/02 08:41:02;;;;;;;0.40;0.30;;;14.70;99.90;;;;;;4991484;28;20530;-73
2021/10/02 08:43:29;;;;;;;0.40;0.30;;;14.80;99.90;;;;;;4991735;28;20387;-73
2021/10/02 08:45:56;;;;;;;0.40;0.30;;;15.00;99.90;;;;;;4978109;28;20396;-73
2021/10/02 08:48:22;;;;;;;0.40;0.20;;;15.10;99.90;;;;;;4971939;28;20396;-73
2021/10/02 08:50:48;;;;;;;0.40;0.20;;;15.20;99.90;;;;;;4972405;28;20848;-72
2021/10/02 08:53:15;;;;;;;0.40;0.20;;;15.20;99.90;;;;;;4971717;28;20928;-73
2021/10/02 08:55:42;;;;;;;0.40;0.30;;;15.30;99.90;;;;;;4972072;28;20433;-73
2021/10/02 08:58:09;;;;;;;0.40;0.25;;;15.60;99.90;;;;;;4954278;28;20888;-74
2021/10/02 09:00:36;;;;;;;0.40;0.30;;;15.60;99.90;;;;;;4972313;28;20766;-73
2021/10/02 09:03:02;;;;;;;0.40;0.30;;;15.70;99.90;;;;;;4971635;28;20403;-74
2021/10/02 09:05:28;;;;;;;0.50;0.50;;;15.80;99.90;;;;;;4972499;28;20853;-74
2021/10/02 09:07:58;;;;;;;0.40;0.30;;;15.90;99.90;;;;;;4972121;28;20416;-74
2021/10/02 09:10:26;;;;;;;0.40;0.20;;;15.90;99.90;;;;;;4971411;28;20869;-74
2021/10/02 09:12:52;;;;;;;0.40;0.30;;;16.00;99.90;;;;;;4972154;28;20392;-73
2021/10/02 09:15:18;;;;;;;0.50;0.50;;;15.90;99.90;;;;;;4971355;28;20418;-74
2021/10/02 09:17:45;;;;;;;0.40;0.30;;;15.90;99.90;;;;;;4972694;28;20388;-73
2021/10/02 09:20:13;;;;;;;0.40;0.20;;;16.00;99.90;;;;;;4974664;28;20411;-74
2021/10/02 09:22:50;;;;;;;0.40;0.20;;;16.00;99.90;;;;;;4975586;28;20398;-73
2021/10/02 09:25:15;;;;;;;0.40;0.30;;;16.10;99.90;;;;;;4975116;28;20424;-74
2021/10/02 09:27:41;;;;;;;0.40;0.30;;;16.20;99.90;;;;;;4975500;28;20869;-73
2021/10/02 09:30:11;;;;;;;0.40;0.20;;;16.30;99.90;;;;;;4974883;28;20396;-73
2021/10/02 09:32:46;;;;;;;0.40;0.20;;;16.50;99.70;;;;;;4975394;28;20388;-74
2021/10/02 09:35:23;;;;;;;0.40;0.30;;;16.60;99.90;;;;;;4975171;28;20745;-73
2021/10/02 09:37:53;;;;;;;0.40;0.20;;;16.70;99.90;;;;;;4975182;28;20396;-74
2021/10/02 09:40:23;;;;;;;0.40;0.30;;;16.80;99.90;;;;;;4957259;28;20746;-74
2021/10/02 09:42:57;;;;;;;0.40;0.20;;;16.90;99.90;;;;;;4975591;28;20483;-74
2021/10/02 09:45:36;;;;;;;0.40;0.40;;;17.10;98.70;;;;;;4983611;28;20430;-73
2021/10/02 09:48:05;;;;;;;0.40;0.20;;;17.30;98.20;;;;;;4994878;28;20463;-73
2021/10/02 09:50:36;;;;;;;0.40;0.30;;;17.40;98.50;;;;;;4994598;28;20391;-73
2021/10/02 09:53:13;;;;;;;0.40;0.30;;;17.70;97.00;;;;;;4994234;28;20418;-73
2021/10/02 09:55:41;;;;;;;0.40;0.30;;;17.90;95.60;;;;;;4994524;28;20405;-72
2021/10/02 09:58:15;;;;;;;0.40;0.30;;;18.30;93.70;;;;;;4993615;28;20883;-73
2021/10/02 10:00:48;;;;;;;0.40;0.30;;;18.50;92.70;;;;;;4976962;28;20748;-73
2021/10/02 10:03:16;;;;;;;0.40;0.30;;;18.40;93.10;;;;;;4993829;28;20748;-73
2021/10/02 10:05:47;;;;;;;0.40;0.30;;;18.50;94.00;;;;;;4994279;28;20918;-74
2021/10/02 10:08:20;;;;;;;0.40;0.30;;;18.70;93.10;;;;;;4993803;28;20409;-73
2021/10/02 10:10:46;;;;;;;0.40;0.20;;;18.90;92.00;;;;;;4994199;28;20397;-74
2021/10/02 10:13:14;;;;;;;0.50;0.40;;;18.90;92.40;;;;;;4993761;28;20387;-74
2021/10/02 10:15:43;;;;;;;0.40;0.30;;;19.00;93.10;;;;;;4993731;28;20971;-74
2021/10/02 10:18:11;;;;;;;0.40;0.30;;;19.00;91.80;;;;;;4993522;28;20391;-74
2021/10/02 10:20:58;;;;;;;0.40;0.30;;;19.00;93.20;;;;;;4993626;28;20421;-75
2021/10/02 10:23:37;;;;;;;0.40;0.20;;;19.20;92.60;;;;;;4993334;28;20869;-75
2021/10/02 10:26:11;;;;;;;0.40;0.20;;;19.30;92.90;;;;;;4993420;28;20413;-74
2021/10/02 10:28:40;;;;;;;0.40;0.30;;;19.30;93.30;;;;;;4994120;28;20379;-74
2021/10/02 10:31:08;;;;;;;0.40;0.30;;;19.40;93.70;;;;;;4993002;28;20445;-75
2021/10/02 10:33:34;;;;;;;0.40;0.30;;;19.60;92.60;;;;;;4993881;28;20389;-73
2021/10/02 10:36:00;;;;;;;0.40;0.20;;;19.80;90.80;;;;;;4993686;28;20382;-73
2021/10/02 10:38:25;;;;;;;0.40;0.22;;;19.80;91.50;;;;;;4993209;28;20393;-73
2021/10/02 10:40:53;;;;;;;0.40;0.30;;;19.70;91.50;;;;;;4993447;28;20422;-73
2021/10/02 10:43:19;;;;;;;0.40;0.30;;;19.70;91.50;;;;;;4992651;28;20398;-72
2021/10/02 10:45:45;;;;;;;0.40;0.30;;;19.90;90.60;;;;;;4981232;28;20420;-73
2021/10/02 10:48:11;;;;;;;0.40;0.30;;;20.00;90.60;;;;;;4973046;28;20952;-74
2021/10/02 10:50:41;;;;;;;0.40;0.30;;;20.40;90.40;;;;;;4973718;28;20392;-73
2021/10/02 10:53:07;;;;;;;0.40;0.20;;;20.40;91.30;;;;;;4973830;28;20388;-73
2021/10/02 10:55:51;;;;;;;0.40;0.30;;;20.70;90.30;;;;;;4973851;28;20414;-74
2021/10/02 10:58:25;;;;;;;0.60;0.50;;;21.00;88.90;;;;;;4973110;28;20908;-73
2021/10/02 11:00:52;;;;;;;0.40;0.30;;;21.00;88.30;;;;;;4973819;28;20430;-72
2021/10/02 11:03:34;;;;;;;0.40;0.20;;;21.00;88.30;;;;;;4973235;28;20443;-73
2021/10/02 11:06:00;;;;;;;0.40;0.30;;;21.00;89.30;;;;;;4973660;28;20392;-73
2021/10/02 11:08:48;;;;;;;0.40;0.20;;;21.50;87.80;;;;;;4973135;28;20730;-73
2021/10/02 11:11:14;;;;;;;0.40;0.30;;;21.30;89.80;;;;;;4972999;28;20388;-72
2021/10/02 11:13:46;;;;;;;0.40;0.30;;;21.80;85.10;;;;;;4973403;28;20488;-72
2021/10/02 11:16:38;;;;;;;0.40;0.30;;;21.90;86.60;;;;;;4972910;28;20392;-73
2021/10/02 11:19:34;;;;;;;0.40;0.30;;;21.80;85.20;;;;;;4973494;28;20889;-73
2021/10/02 11:22:02;;;;;;;0.40;0.20;;;22.00;85.10;;;;;;4973415;28;20428;-74
2021/10/02 11:24:39;;;;;;;0.40;0.30;;;22.30;87.40;;;;;;4972873;28;20434;-72
2021/10/02 11:27:06;;;;;;;0.40;0.20;;;23.20;80.70;;;;;;4973499;28;20467;-71
2021/10/02 11:29:37;;;;;;;0.40;0.20;;;22.90;79.60;;;;;;4972720;28;20412;-74
2021/10/02 11:32:19;;;;;;;0.40;0.30;;;22.30;80.70;;;;;;4973261;28;20810;-71
2021/10/02 11:35:17;;;;;;;0.40;0.30;;;21.60;82.40;;;;;;4973304;28;20447;-74
2021/10/02 11:37:57;;;;;;;0.40;0.20;;;20.90;88.30;;;;;;4973555;28;20388;-72
2021/10/02 11:40:32;;;;;;;0.40;0.30;;;21.00;87.90;;;;;;4972525;28;20462;-72
2021/10/02 11:43:13;;;;;;;0.40;0.30;;;21.50;86.40;;;;;;4973149;28;20442;-72
2021/10/02 11:45:40;;;;;;;0.40;0.30;;;22.00;85.90;;;;;;4972995;28;20462;-72
2021/10/02 11:48:10;;;;;;;0.40;0.20;;;21.90;84.90;;;;;;4973034;28;20458;-72
2021/10/02 11:50:36;;;;;;;0.40;0.30;;;21.80;84.50;;;;;;4972905;28;20562;-72
2021/10/02 11:53:01;;;;;;;0.40;0.30;;;22.00;84.80;;;;;;4972935;28;20593;-72
2021/10/02 11:55:33;;;;;;;0.40;0.30;;;21.70;85.40;;;;;;4972190;28;20411;-72
2021/10/02 11:58:10;;;;;;;0.40;0.20;;;21.40;87.10;;;;;;4972908;28;20843;-72
2021/10/02 12:00:48;;;;;;;0.40;0.20;;;21.40;87.40;;;;;;4972830;28;20427;-72
2021/10/02 12:03:20;;;;;;;0.40;0.30;;;22.20;88.10;;;;;;4972150;28;20396;-73
2021/10/02 12:05:48;;;;;;;0.40;0.30;;;23.00;84.50;;;;;;4972888;28;20415;-73
2021/10/02 12:08:15;;;;;;;0.40;0.30;;;23.70;79.00;;;;;;4972417;28;20396;-72
2021/10/02 12:11:11;;;;;;;0.40;0.30;;;23.40;77.30;;;;;;4972765;28;20428;-73
2021/10/02 12:13:51;;;;;;;0.40;0.30;;;23.10;79.10;;;;;;4970275;28;20475;-72
2021/10/02 12:16:22;;;;;;;0.40;0.20;;;23.70;80.80;;;;;;4971945;28;20428;-73
2021/10/02 12:19:00;;;;;;;0.40;0.20;;;23.80;82.10;;;;;;4972801;28;20395;-72
2021/10/02 12:21:57;;;;;;;0.40;0.20;;;23.50;79.20;;;;;;4971887;28;20415;-72
2021/10/02 12:24:32;;;;;;;0.40;0.30;;;23.70;82.40;;;;;;4972095;28;20395;-72
2021/10/02 12:27:18;;;;;;;0.40;0.30;;;23.80;83.90;;;;;;4972419;28;20516;-72
2021/10/02 12:29:51;;;;;;;0.40;0.30;;;23.70;81.70;;;;;;4972681;28;20384;-72
2021/10/02 12:32:24;;;;;;;0.40;0.20;;;23.20;81.70;;;;;;4971987;28;20467;-72
2021/10/02 12:34:56;;;;;;;0.40;0.20;;;23.00;80.00;;;;;;4972598;28;20381;-72
2021/10/02 12:37:28;;;;;;;0.40;0.28;;;23.40;86.60;;;;;;4971565;28;20392;-73
2021/10/02 12:40:06;;;;;;;0.40;0.30;;;23.50;85.80;;;;;;4972314;28;20459;-72
2021/10/02 12:42:56;;;;;;;0.40;0.20;;;22.70;84.60;;;;;;4971727;28;20400;-72
2021/10/02 12:45:29;;;;;;;0.40;0.20;;;23.20;82.90;;;;;;4980791;28;20394;-72
2021/10/02 12:47:59;;;;;;;0.40;0.30;;;23.30;84.50;;;;;;4991859;28;20474;-72
2021/10/02 12:50:32;;;;;;;0.40;0.30;;;23.60;82.10;;;;;;4991408;28;20398;-72
2021/10/02 12:52:58;;;;;;;0.40;0.20;;;23.00;83.20;;;;;;4975240;28;20746;-72
2021/10/02 12:55:25;;;;;;;0.40;0.20;;;23.00;82.20;;;;;;4995005;28;20481;-72
2021/10/02 12:57:51;;;;;;;0.40;0.30;;;23.00;87.80;;;;;;4995621;28;20390;-73
2021/10/02 13:00:19;;;;;;;0.50;0.50;;;23.20;86.70;;;;;;4994987;28;20476;-72
2021/10/02 13:02:58;;;;;;;0.40;0.30;;;23.40;89.40;;;;;;4995476;28;20783;-72
2021/10/02 13:05:28;;;;;;;0.40;0.20;;;23.70;84.30;;;;;;4994898;28;20445;-72
2021/10/02 13:07:58;;;;;;;0.40;0.30;;;23.70;86.80;;;;;;4995690;28;20433;-72
2021/10/02 13:10:26;;;;;;;0.40;0.38;;;23.90;83.10;;;;;;4977430;28;20855;-72
2021/10/02 13:13:04;;;;;;;0.40;0.30;;;23.90;85.70;;;;;;4995326;28;20406;-72
2021/10/02 13:15:38;;;;;;;0.40;0.20;;;23.90;85.00;;;;;;4994764;28;20763;-72
2021/10/02 13:18:25;;;;;;;0.40;0.20;;;23.70;82.70;;;;;;4995065;28;20394;-72
2021/10/02 13:20:53;;;;;;;0.40;0.30;;;24.10;84.80;;;;;;4995268;28;20809;-72
2021/10/02 13:23:22;;;;;;;0.40;0.20;;;24.50;80.70;;;;;;4994566;28;20791;-72
2021/10/02 13:25:53;;;;;;;0.40;0.30;;;24.40;80.00;;;;;;4995333;28;20401;-72
2021/10/02 13:28:20;;;;;;;0.40;0.30;;;24.40;80.50;;;;;;4994585;28;20406;-72
2021/10/02 13:30:46;;;;;;;0.40;0.20;;;24.10;80.50;;;;;;4995146;28;20490;-72
2021/10/02 13:33:14;;;;;;;0.40;0.20;;;24.30;85.80;;;;;;4994938;28;20641;-72
2021/10/02 13:35:46;;;;;;;0.40;0.30;;;24.10;82.50;;;;;;4994383;28;20378;-72
2021/10/02 13:38:12;;;;;;;0.40;0.22;;;24.10;82.50;;;;;;4994753;28;20386;-72
2021/10/02 13:40:46;;;;;;;0.40;0.30;;;23.80;86.50;;;;;;4993900;28;20827;-72
2021/10/02 13:43:12;;;;;;;0.40;0.20;;;23.60;88.30;;;;;;4995010;28;20387;-72
2021/10/02 13:45:41;;;;;;;0.40;0.20;;;23.60;87.00;;;;;;4994139;28;20383;-72
2021/10/02 13:48:10;;;;;;;0.40;0.20;;;23.80;87.90;;;;;;4994549;28;20398;-72
2021/10/02 13:50:37;;;;;;;0.40;0.20;;;23.90;84.70;;;;;;4994076;28;20901;-72